• Join FlightAware (Why Join?)
  • Login
  • US Flag 
06:45AM EST


 

Airport Tracker/Info


-or-


 

Live Flight TrackerFlight Track Log ✈ N589H ✈ 02-Feb-2014 ✈ CYYZ - KCLT

Flight Track Log - Related Links

Times and Time Zones

All times are in EST time to prevent confusion due to time zone crossing. See the N589H flight status page for this flight to view local times or setup timezone preferences in your user account.

Time Position Orientation Groundspeed Altitude Reporting Facility
EST Latitude Longitude Course Direction KTS MPH feet Rate Location/Type
03:47PM 43.6833 -79.6333 360° North 10 12 500  Level Toronto Center
03:48PM 43.6833 -79.6333 216° Southwest 20 23 500 180 Level Toronto Center
03:51PM 43.6667 -79.6500 216° Southwest 130 150 1,300 720 Climbing Toronto Center
03:52PM 43.6000 -79.6500 180° South 190 219 3,300 2,160 Climbing Toronto Center
03:53PM 43.5500 -79.6500 180° South 190 219 5,700 1,800 Climbing Toronto Center
03:54PM 43.5000 -79.6833 206° Southwest 190 219 6,900 600 Climbing Toronto Center
03:55PM 43.4333 -79.6833 180° South 230 265 6,900 240 Level Toronto Center
03:56PM 43.3667 -79.6833 180° South 250 288 7,400 660 Climbing Toronto Center
03:57PM 43.2833 -79.6833 180° South 260 299 8,300 900 Climbing Toronto Center
03:58PM 43.2167 -79.7000 190° South 260 299 9,300 960 Climbing Toronto Center
03:59PM 43.1500 -79.7000 180° South 250 288 10,300 1,020 Climbing Toronto Center
04:00PM 43.0833 -79.7167 190° South 250 288 11,400 1,020 Climbing Toronto Center
04:01PM 43.0167 -79.7167 180° South 250 288 12,400 1,020 Climbing Toronto Center
04:02PM 42.9500 -79.7500 200° South 240 276 13,500 1,020 Climbing Toronto Center
04:03PM 42.8833 -79.7500 180° South 240 276 14,500 960 Climbing Toronto Center
04:03PM 42.8467 -79.7822 213° Southwest 237 273 15,200 960 Climbing Cleveland Center
04:04PM 42.7808 -79.7933 187° South 238 274 16,300 1,020 Climbing Cleveland Center
04:05PM 42.7153 -79.8039 187° South 239 275 17,400 960 Climbing Cleveland Center
04:06PM 42.6503 -79.8158 188° South 236 272 18,300 960 Climbing Cleveland Center
04:07PM 42.5714 -79.8289 187° South 241 277 19,500 1,080 Climbing Cleveland Center
04:08PM 42.5053 -79.8408 188° South 240 276 20,600 1,020 Climbing Cleveland Center
04:10PM 42.4361 -79.8508 186° South 240 276 21,600 960 Climbing Cleveland Center
04:11PM 42.3697 -79.8622 187° South 241 277 22,700 960 Climbing Cleveland Center
04:12PM 42.3039 -79.8733 187° South 239 275 23,700 960 Climbing Cleveland Center
04:13PM 42.2378 -79.8850 187° South 241 277 24,800 960 Climbing Cleveland Center
04:14PM 42.1728 -79.8953 187° South 238 274 25,800 1,020 Climbing Cleveland Center
04:15PM 42.0967 -79.9081 187° South 232 267 27,000 1,080 Climbing Cleveland Center
04:16PM 42.0336 -79.9186 187° South 231 266 28,100 960 Climbing Cleveland Center
04:17PM 41.9708 -79.9292 187° South 231 266 29,100 960 Climbing Cleveland Center
04:18PM 41.9039 -79.9436 189° South 235 270 30,200 1,020 Climbing Cleveland Center
04:19PM 41.8392 -79.9533 186° South 232 267 31,300 840 Climbing Cleveland Center
04:20PM 41.7767 -79.9636 187° South 225 259 32,000 300 Climbing Cleveland Center
04:21PM 41.7097 -79.9744 187° South 239 275 32,000  Level Cleveland Center
04:22PM 41.6294 -79.9861 186° South 259 298 32,000  Level Cleveland Center
04:23PM 41.5500 -80.0006 188° South 268 308 32,000  Level Cleveland Center
04:24PM 41.4736 -80.0114 186° South 275 316 32,000  Level Cleveland Center
04:25PM 41.3969 -80.0233 187° South 277 319 32,000  Level Cleveland Center
04:26PM 41.3200 -80.0369 188° South 279 321 32,000  Level Cleveland Center
04:27PM 41.2425 -80.0483 186° South 280 322 32,000  Level Cleveland Center
04:28PM 41.1644 -80.0622 188° South 282 325 32,000  Level Cleveland Center
04:29PM 41.0853 -80.0750 187° South 287 330 32,000  Level Cleveland Center
04:30PM 40.9917 -80.0903 187° South 284 327 32,000  Level Cleveland Center
04:31PM 40.9136 -80.1022 187° South 284 327 32,000  Level Cleveland Center
04:32PM 40.8289 -80.1147 186° South 286 329 32,000  Level Cleveland Center
04:33PM 40.7506 -80.1269 187° South 288 331 32,000  Level Cleveland Center
04:34PM 40.6714 -80.1403 187° South 289 333 32,000  Level Cleveland Center
04:35PM 40.5919 -80.1525 187° South 290 334 32,000  Level Cleveland Center
04:36PM 40.5128 -80.1656 187° South 290 334 32,000  Level Cleveland Center
04:37PM 40.4186 -80.1814 187° South 285 328 32,000  Level Cleveland Center
04:38PM 40.3369 -80.1939 187° South 293 337 32,000  Level Cleveland Center
04:39PM 40.2494 -80.2078 187° South 296 341 32,000  Level Cleveland Center
04:40PM 40.1681 -80.2208 187° South 295 339 32,000  Level Cleveland Center
04:41PM 40.0867 -80.2331 187° South 295 339 32,000  Level Cleveland Center
04:43PM 40.0042 -80.2458 187° South 298 343 32,000  Level Cleveland Center
04:44PM 39.9219 -80.2589 187° South 298 343 32,000  Level Cleveland Center
04:45PM 39.8419 -80.2711 187° South 292 336 32,000  Level Cleveland Center
04:46PM 39.7458 -80.2861 187° South 290 334 32,000  Level Cleveland Center
04:47PM 39.6686 -80.2986 187° South 282 325 32,000  Level Cleveland Center
04:48PM 39.5925 -80.3108 187° South 275 316 32,000  Level Cleveland Center
04:49PM 39.5144 -80.3236 187° South 262 302 32,000  Level Washington Center
04:49PM 39.4872 -80.3272 186° South 257 296 32,000  Level Washington Center
04:50PM 39.4117 -80.3383 186° South 263 303 32,000  Level Washington Center
04:51PM 39.3364 -80.3494 187° South 268 308 32,000  Level Washington Center
04:52PM 39.2586 -80.3631 188° South 274 315 32,000  Level Washington Center
04:53PM 39.1811 -80.3742 186° South 279 321 32,000  Level Washington Center
04:54PM 39.1014 -80.3850 186° South 279 321 32,000  Level Washington Center
04:55PM 39.0194 -80.3983 187° South 284 327 32,000  Level Washington Center
04:56PM 38.9378 -80.4089 186° South 295 339 32,000  Level Washington Center
04:57PM 38.8558 -80.4222 187° South 295 339 32,000  Level Washington Center
04:58PM 38.7761 -80.4356 187° South 295 339 32,000  Level Washington Center
04:59PM 38.6856 -80.4564 190° South 307 353 32,000  Level Washington Center
05:00PM 38.6122 -80.4647 185° South 313 360 32,000  Level Washington Center
05:01PM 38.5303 -80.4806 189° South 313 360 32,000  Level Washington Center
05:02PM 38.4444 -80.4883 184° South 313 360 32,000  Level Washington Center
05:03PM 38.3628 -80.5014 187° South 313 360 32,000  Level Washington Center
05:04PM 38.2703 -80.5164 187° South 313 360 32,000  Level Washington Center
05:05PM 38.1864 -80.5294 187° South 313 360 32,000  Level Washington Center
05:06PM 38.1044 -80.5397 186° South 313 360 32,000  Level Washington Center
05:07PM 38.0292 -80.5506 186° South 313 360 32,000  Level Washington Center
05:08PM 37.9431 -80.5633 187° South 313 360 32,000  Level Washington Center
05:09PM 37.8611 -80.5764 187° South 313 360 32,000  Level Washington Center
05:10PM 37.7772 -80.5892 187° South 313 360 32,000 -480 Level Washington Center
05:12PM 37.5744 -80.6169 186° South 319 367 30,600 -780 Descending Atlanta Center
05:13PM 37.4747 -80.6292 186° South 332 382 29,500 -960 Descending Atlanta Center
05:14PM 37.3811 -80.6436 187° South 332 382 28,700 -900 Descending Atlanta Center
05:15PM 37.2878 -80.6583 187° South 332 382 27,800 -900 Descending Atlanta Center
05:16PM 37.1986 -80.6700 186° South 332 382 26,900 -900 Descending Atlanta Center
05:17PM 37.1133 -80.6814 186° South 332 382 26,000 -900 Descending Atlanta Center
05:18PM 37.0200 -80.6931 186° South 332 382 25,100 -900 Descending Atlanta Center
05:19PM 36.9347 -80.7044 186° South 326 375 24,200 -1,080 Descending Atlanta Center
05:20PM 36.8414 -80.7189 187° South 315 362 23,000 -1,260 Descending Atlanta Center
05:21PM 36.7581 -80.7300 186° South 310 357 21,700 -1,260 Descending Atlanta Center
05:22PM 36.6856 -80.7433 188° South 305 351 20,500 -1,260 Descending Atlanta Center
05:23PM 36.6025 -80.7547 186° South 311 358 19,200 -1,320 Descending Atlanta Center
05:24PM 36.5172 -80.7658 186° South 311 358 17,900 -1,320 Descending Atlanta Center
05:25PM 36.4383 -80.7769 186° South 305 351 16,600 -1,320 Descending Atlanta Center
05:26PM 36.3614 -80.7903 188° South 294 338 15,300 -1,320 Descending Atlanta Center
05:27PM 36.2847 -80.8011 186° South 289 333 14,000 -1,320 Descending Atlanta Center
05:28PM 36.2078 -80.8119 186° South 284 327 12,700 -1,380 Descending Atlanta Center
05:29PM 36.1372 -80.8225 187° South 278 320 11,300 -1,320 Descending Atlanta Center
05:30PM 36.0622 -80.8356 188° South 278 320 10,100 -660 Descending Atlanta Center
05:31PM 35.9833 -80.8492 188° South 278 320 10,000 -120 Descending Atlanta Center
05:31PM 35.9833 -80.8492 188° South 263 303 10,000  Level Atlanta Center
05:32PM 35.9128 -80.8594 187° South 278 320 10,000  Level Atlanta Center
05:33PM 35.9044 -80.8625 197° South 262 302 10,000  Level Atlanta Center
05:33PM 35.8381 -80.8703 185° South 278 320 10,000  Level Atlanta Center
05:34PM 35.8297 -80.8731 195° South 262 302 10,000 -300 Level Atlanta Center
05:34PM 35.7653 -80.8833 187° South 273 314 9,700 -600 Descending Atlanta Center
05:35PM 35.7467 -80.8889 194° South 268 308 9,400 -900 Descending Atlanta Center
05:35PM 35.6928 -80.9014 191° South 273 314 8,800 -900 Descending Atlanta Center
05:36PM 35.6761 -80.9072 196° South 260 299 8,500 -900 Descending Atlanta Center
05:36PM 35.6306 -80.9192 192° South 262 302 7,900 -1,020 Descending Atlanta Center
05:37PM 35.6203 -80.9219 192° South 225 259 7,600 -1,020 Descending Atlanta Center
05:37PM 35.5664 -80.9369 193° South 249 287 6,900 -900 Descending Atlanta Center
05:37PM 35.5603 -80.9397 200° South 237 273 6,800 -1,020 Descending Atlanta Center
05:38PM 35.4917 -80.9550 190° South 247 284 5,800 -1,260 Descending Atlanta Center
05:39PM 35.4292 -80.9547 180° South 249 287 4,400 -1,620 Descending Atlanta Center
05:40PM 35.4228 -80.9550 182° South 247 284 4,200 -420 Descending Atlanta Center
05:40PM 35.3706 -80.9519 177° South 236 272 4,000 -300 Descending Atlanta Center
05:41PM 35.3539 -80.9525 182° South 209 241 3,900 -840 Descending Atlanta Center
05:42PM 35.3058 -80.9467 174° South 175 201 3,000 -1,200 Descending Atlanta Center
05:43PM 35.2642 -80.9431 176° South 139 160 1,600 -1,440 Descending Atlanta Center
05:45PM 35.2137 -80.9491 180° South  Level Estimated
05:52PM 35.2137 -80.9491 180° South  Level Estimated